createdAt,value
2022-08-12T00:00:18.511Z,5.95
2022-08-12T00:03:03.703Z,6.15
2022-08-12T00:06:04.140Z,5.68
2022-08-12T00:08:54.801Z,6.43
2022-08-12T00:11:41.141Z,6.43
2022-08-12T00:14:28.477Z,5.95
2022-08-12T00:17:13.782Z,6.03
2022-08-12T00:19:58.941Z,6.00
2022-08-12T00:22:44.225Z,6.32
2022-08-12T00:26:00.501Z,6.15
2022-08-12T00:28:36.168Z,5.50
2022-08-12T00:31:21.687Z,6.00
2022-08-12T00:34:07.006Z,5.93
2022-08-12T00:36:52.349Z,6.68
2022-08-12T00:39:38.792Z,6.07
2022-08-12T00:42:11.539Z,5.90
2022-08-12T00:44:45.571Z,5.55
2022-08-12T00:47:24.511Z,6.22
2022-08-12T00:49:54.586Z,4.85
2022-08-12T00:52:23.570Z,5.82
2022-08-12T00:54:51.557Z,4.72
2022-08-12T00:57:21.148Z,5.00
2022-08-12T00:59:51.266Z,4.50
2022-08-12T01:02:26.755Z,5.63
2022-08-12T01:05:16.455Z,5.75
2022-08-12T01:08:03.331Z,5.22
2022-08-12T01:10:49.936Z,4.90
2022-08-12T01:13:20.236Z,5.20
2022-08-12T01:15:53.619Z,4.82
2022-08-12T01:18:23.476Z,5.30
2022-08-12T01:21:13.241Z,4.85
2022-08-12T01:23:56.925Z,5.43
2022-08-12T01:26:25.466Z,4.93
2022-08-12T01:28:58.651Z,4.55
2022-08-12T01:31:27.019Z,4.68
2022-08-12T01:34:28.528Z,5.30
2022-08-12T01:37:02.285Z,5.25
2022-08-12T01:40:34.439Z,4.43
2022-08-12T01:42:43.474Z,6.07
2022-08-12T01:45:12.540Z,4.80
2022-08-12T01:48:00.722Z,5.72
2022-08-12T01:50:36.913Z,5.33
2022-08-12T01:53:10.638Z,5.15
2022-08-12T01:55:41.523Z,4.40
2022-08-12T01:58:18.147Z,4.40
2022-08-12T02:00:56.185Z,4.43
2022-08-12T02:03:56.793Z,3.60
2022-08-12T02:06:55.077Z,3.83
2022-08-12T02:10:02.093Z,4.00
2022-08-12T02:13:03.130Z,3.80
2022-08-12T02:15:46.758Z,4.38
2022-08-12T02:18:29.608Z,4.15
2022-08-12T02:21:13.543Z,4.20
2022-08-12T02:23:44.079Z,4.50
2022-08-12T02:26:15.983Z,3.58
2022-08-12T02:28:43.316Z,4.20
2022-08-12T02:31:11.639Z,4.05
2022-08-12T02:33:39.790Z,4.25
2022-08-12T02:36:06.757Z,4.05
2022-08-12T02:38:34.420Z,3.95
2022-08-12T02:41:03.921Z,4.63
2022-08-12T02:43:51.417Z,4.43
2022-08-12T02:46:39.815Z,4.85
2022-08-12T02:49:13.982Z,4.45
2022-08-12T02:51:44.443Z,4.78
2022-08-12T02:54:11.948Z,4.60
2022-08-12T02:56:41.058Z,4.35
2022-08-12T02:59:14.204Z,4.15
2022-08-12T03:01:49.782Z,4.13
2022-08-12T03:04:58.524Z,4.10
2022-08-12T03:07:31.958Z,4.07
2022-08-12T03:10:13.072Z,4.40
2022-08-12T03:12:50.802Z,3.88
2022-08-12T03:15:24.011Z,4.70
2022-08-12T03:18:26.275Z,4.43
2022-08-12T03:20:43.060Z,3.95
2022-08-12T03:23:19.426Z,3.78
2022-08-12T03:25:59.395Z,4.00
2022-08-12T03:28:46.911Z,4.22
2022-08-12T03:31:13.560Z,4.40
2022-08-12T03:34:00.699Z,3.55
2022-08-12T03:36:29.044Z,3.95
2022-08-12T03:39:15.829Z,4.05
2022-08-12T03:42:10.553Z,4.22
2022-08-12T03:45:23.814Z,4.07
2022-08-12T03:48:38.398Z,4.20
2022-08-12T03:51:24.329Z,4.35
2022-08-12T03:54:11.497Z,4.05
2022-08-12T03:56:57.966Z,3.97
2022-08-12T03:59:43.130Z,4.25
2022-08-12T04:02:14.825Z,4.68
2022-08-12T04:04:45.406Z,3.55
2022-08-12T04:07:13.835Z,3.92
2022-08-12T04:09:43.154Z,4.35
2022-08-12T04:12:29.882Z,3.58
2022-08-12T04:15:01.006Z,4.30
2022-08-12T04:17:28.712Z,3.95
2022-08-12T04:19:56.832Z,3.80
2022-08-12T04:22:28.998Z,3.78
2022-08-12T04:24:59.006Z,3.72
2022-08-12T04:27:25.690Z,3.83
2022-08-12T04:30:31.657Z,4.20
2022-08-12T04:32:43.827Z,4.25
2022-08-12T04:37:59.313Z,3.60
2022-08-12T04:40:29.804Z,3.92
2022-08-12T04:42:57.780Z,4.18
2022-08-12T04:45:25.135Z,4.00
2022-08-12T04:47:52.226Z,4.03
2022-08-12T04:50:35.116Z,3.60
2022-08-12T04:53:08.254Z,3.13
2022-08-12T04:55:37.772Z,3.78
2022-08-12T04:58:04.762Z,3.47
2022-08-12T05:00:31.774Z,3.53
2022-08-12T05:02:58.698Z,4.10
2022-08-12T05:05:25.467Z,4.40
2022-08-12T05:07:54.094Z,4.10
2022-08-12T05:10:33.429Z,4.80
2022-08-12T05:13:05.709Z,3.92
2022-08-12T05:15:32.361Z,4.82
2022-08-12T05:18:00.167Z,4.38
2022-08-12T05:20:29.572Z,4.15
2022-08-12T05:23:13.351Z,4.38
2022-08-12T05:25:45.895Z,5.03
2022-08-12T05:28:13.926Z,4.60
2022-08-12T05:30:43.233Z,4.45
2022-08-12T05:33:11.395Z,4.68
2022-08-12T05:35:40.315Z,4.22
2022-08-12T05:38:28.196Z,4.53
2022-08-12T05:40:55.261Z,4.47
2022-08-12T05:43:22.447Z,4.03
2022-08-12T05:45:49.688Z,4.68
2022-08-12T05:48:17.409Z,3.95
2022-08-12T05:50:45.571Z,4.03
2022-08-12T05:53:13.291Z,3.92
2022-08-12T05:55:40.674Z,4.50
2022-08-12T05:58:10.305Z,5.20
2022-08-12T06:00:37.588Z,3.97
2022-08-12T06:03:06.157Z,4.07
2022-08-12T06:05:54.206Z,4.53
2022-08-12T06:08:23.115Z,4.75
2022-08-12T06:10:50.513Z,4.47
2022-08-12T06:13:28.057Z,4.20
2022-08-12T06:16:07.449Z,4.85
2022-08-12T06:18:34.748Z,3.53
2022-08-12T06:21:02.183Z,4.70
2022-08-12T06:23:29.719Z,4.40
2022-08-12T06:25:56.868Z,5.07
2022-08-12T06:28:23.945Z,4.82
2022-08-12T06:31:08.549Z,3.67
2022-08-12T06:34:00.710Z,4.55
2022-08-12T06:36:30.057Z,4.85
2022-08-12T06:39:00.879Z,4.88
2022-08-12T06:42:04.922Z,4.68
2022-08-12T06:44:32.990Z,4.95
2022-08-12T06:47:00.133Z,5.07
2022-08-12T06:49:28.402Z,5.13
2022-08-12T06:51:56.741Z,4.80
2022-08-12T06:54:30.717Z,4.00
2022-08-12T06:57:04.324Z,4.53
2022-08-12T06:59:32.419Z,3.97
2022-08-12T07:01:59.272Z,4.55
2022-08-12T07:04:41.541Z,4.35
2022-08-12T07:07:10.635Z,4.25
2022-08-12T07:10:03.957Z,5.35
2022-08-12T07:12:29.787Z,3.92
2022-08-12T07:15:02.076Z,3.58
2022-08-12T07:17:36.201Z,4.05
2022-08-12T07:20:05.616Z,3.28
2022-08-12T07:22:33.442Z,3.50
2022-08-12T07:25:18.617Z,3.20
2022-08-12T07:27:45.790Z,4.03
2022-08-12T07:30:13.361Z,4.15
2022-08-12T07:32:40.177Z,4.43
2022-08-12T07:35:07.395Z,3.58
2022-08-12T07:37:42.054Z,3.20
2022-08-12T07:40:12.174Z,4.28
2022-08-12T07:42:43.874Z,3.85
2022-08-12T07:45:12.426Z,4.43
2022-08-12T07:47:43.527Z,4.55
2022-08-12T07:50:13.101Z,4.25
2022-08-12T07:52:43.142Z,4.00
2022-08-12T07:55:11.479Z,4.30
2022-08-12T07:57:55.940Z,4.78
2022-08-12T08:00:23.274Z,4.60
2022-08-12T08:02:54.331Z,4.72
2022-08-12T08:05:23.807Z,4.65
2022-08-12T08:07:53.766Z,5.38
2022-08-12T08:10:21.008Z,4.80
2022-08-12T08:12:53.950Z,4.88
2022-08-12T08:16:00.794Z,5.05
2022-08-12T08:18:26.503Z,4.97
2022-08-12T08:20:56.655Z,3.85
2022-08-12T08:23:43.652Z,5.03
2022-08-12T08:26:15.698Z,4.70
2022-08-12T08:28:43.643Z,5.00
2022-08-12T08:31:10.488Z,4.78
2022-08-12T08:34:05.227Z,4.97
2022-08-12T08:36:24.389Z,4.85
2022-08-12T08:38:53.264Z,4.43
2022-08-12T08:42:14.276Z,5.53
2022-08-12T08:44:30.600Z,4.50
2022-08-12T08:46:57.428Z,4.97
2022-08-12T08:49:24.876Z,4.40
2022-08-12T08:51:51.635Z,3.85
2022-08-12T08:54:18.366Z,4.10
2022-08-12T08:56:50.316Z,3.67
2022-08-12T08:59:19.390Z,4.28
2022-08-12T09:01:47.143Z,3.17
2022-08-12T09:05:07.307Z,2.67
2022-08-12T09:07:17.878Z,3.00
2022-08-12T09:10:03.349Z,3.15
2022-08-12T09:12:54.004Z,3.03
2022-08-12T09:15:21.834Z,2.80
2022-08-12T09:17:57.026Z,2.90
2022-08-12T09:20:36.253Z,3.00
2022-08-12T09:25:58.383Z,2.42
2022-08-12T09:28:32.995Z,2.80
2022-08-12T09:31:00.386Z,2.25
2022-08-12T09:34:28.856Z,2.30
2022-08-12T09:36:31.419Z,2.38
2022-08-12T09:40:02.062Z,2.83
2022-08-12T09:42:33.551Z,2.05
2022-08-12T09:46:11.147Z,3.63
2022-08-12T09:48:22.250Z,2.50
2022-08-12T09:50:52.162Z,2.20
2022-08-12T09:53:35.947Z,1.98
2022-08-12T09:56:41.153Z,2.35
2022-08-12T09:59:00.401Z,2.17
2022-08-12T10:01:34.910Z,2.67
2022-08-12T10:04:19.031Z,2.40
2022-08-12T10:06:55.078Z,2.95
2022-08-12T10:09:28.605Z,2.70
2022-08-12T10:12:31.109Z,2.65
2022-08-12T10:15:00.014Z,2.75
2022-08-12T10:17:26.720Z,2.88
2022-08-12T10:19:53.399Z,2.67
2022-08-12T10:22:38.803Z,2.80
2022-08-12T10:26:18.438Z,2.42
2022-08-12T10:28:38.319Z,3.00
2022-08-12T10:31:06.055Z,2.28
2022-08-12T10:33:55.174Z,2.20
2022-08-12T10:36:21.556Z,2.22
2022-08-12T10:39:03.721Z,2.60
2022-08-12T10:42:09.480Z,2.13
2022-08-12T10:44:37.134Z,2.25
2022-08-12T10:47:26.628Z,2.65
2022-08-12T10:50:02.659Z,2.40
2022-08-12T10:52:39.008Z,2.10
2022-08-12T10:55:12.948Z,2.17
2022-08-12T10:58:15.351Z,2.20
2022-08-12T11:00:33.953Z,2.38
2022-08-12T11:04:34.344Z,2.10
2022-08-12T11:07:09.834Z,1.90
2022-08-12T11:08:43.071Z,2.38
2022-08-12T11:12:08.432Z,2.40
2022-08-12T11:14:05.713Z,2.47
2022-08-12T11:16:33.419Z,2.13
2022-08-12T11:19:03.004Z,2.22
2022-08-12T11:21:57.698Z,2.20
2022-08-12T11:24:31.945Z,1.83
2022-08-12T11:27:07.841Z,2.47
2022-08-12T11:30:06.097Z,1.90
2022-08-12T11:32:24.622Z,2.70
2022-08-12T11:34:54.562Z,2.05
2022-08-12T11:37:25.682Z,2.30
2022-08-12T11:42:45.891Z,2.42
2022-08-12T11:45:16.574Z,2.55
2022-08-12T11:47:43.888Z,1.90
2022-08-12T11:50:11.588Z,2.15
2022-08-12T11:52:55.479Z,2.22
2022-08-12T11:55:24.429Z,2.33
2022-08-12T11:58:44.157Z,2.63
2022-08-12T12:03:44.103Z,2.13
2022-08-12T12:06:17.083Z,2.22
2022-08-12T12:08:50.043Z,2.00
2022-08-12T12:11:18.619Z,1.95
2022-08-12T12:14:07.783Z,2.03
2022-08-12T12:16:33.294Z,2.35
2022-08-12T12:19:00.861Z,2.03
2022-08-12T12:21:46.771Z,2.00
2022-08-12T12:24:20.821Z,1.92
2022-08-12T12:26:59.755Z,2.08
2022-08-12T12:30:19.314Z,2.28
2022-08-12T12:32:15.114Z,1.85
2022-08-12T12:35:17.878Z,2.17
2022-08-12T12:38:04.077Z,1.98
2022-08-12T12:40:15.963Z,2.70
2022-08-12T12:43:00.349Z,2.38
2022-08-12T12:45:33.386Z,2.30
2022-08-12T12:51:56.400Z,2.20
2022-08-12T12:54:29.078Z,2.08
2022-08-12T12:56:56.187Z,2.13
2022-08-12T12:59:33.748Z,2.28
2022-08-12T13:02:10.997Z,2.20
2022-08-12T13:04:38.057Z,2.50
2022-08-12T13:07:06.593Z,2.30
2022-08-12T13:09:36.302Z,2.33
2022-08-12T13:12:05.167Z,1.95
2022-08-12T13:14:35.174Z,2.08
2022-08-12T13:17:06.283Z,2.53
2022-08-12T13:19:44.518Z,2.15
2022-08-12T13:22:20.424Z,2.40
2022-08-12T13:24:55.479Z,2.17
2022-08-12T13:27:34.922Z,2.00
2022-08-12T13:30:10.957Z,2.10
2022-08-12T13:32:57.515Z,2.13
2022-08-12T13:36:02.663Z,2.40
2022-08-12T13:38:13.500Z,2.20
2022-08-12T13:40:40.601Z,2.20
2022-08-12T13:43:07.546Z,2.15
2022-08-12T13:45:36.837Z,2.10
2022-08-12T13:48:05.510Z,2.00
2022-08-12T13:50:38.054Z,2.08
2022-08-12T13:53:24.388Z,2.20
2022-08-12T13:58:30.795Z,2.40
2022-08-12T14:01:05.873Z,1.95
2022-08-12T14:03:50.246Z,2.00
2022-08-12T14:06:19.264Z,2.42
2022-08-12T14:08:49.768Z,2.30
2022-08-12T14:11:18.376Z,2.28
2022-08-12T14:14:05.541Z,2.42
2022-08-12T14:16:48.158Z,2.17
2022-08-12T14:19:24.384Z,2.22
2022-08-12T14:21:58.892Z,2.42
2022-08-12T14:24:30.630Z,2.60
2022-08-12T14:26:58.863Z,2.17
2022-08-12T14:32:17.911Z,2.10
2022-08-12T14:34:47.245Z,2.40
2022-08-12T14:37:55.599Z,1.75
2022-08-12T14:40:28.061Z,1.80
2022-08-12T14:42:55.713Z,2.60
2022-08-12T14:45:44.471Z,2.30
2022-08-12T14:48:12.811Z,2.30
2022-08-12T14:51:02.626Z,1.95
2022-08-12T14:59:23.998Z,2.58
2022-08-12T15:01:52.005Z,2.53
2022-08-12T15:04:22.557Z,2.10
2022-08-12T15:06:52.630Z,2.83
2022-08-12T15:09:28.726Z,2.42
2022-08-12T15:12:03.199Z,2.08
2022-08-12T15:14:30.626Z,2.70
2022-08-12T15:17:00.049Z,2.42
2022-08-12T15:20:10.806Z,2.67
2022-08-12T15:22:38.133Z,2.53
2022-08-12T15:25:07.151Z,2.83
2022-08-12T15:28:04.437Z,2.63
2022-08-12T15:30:26.925Z,2.55
2022-08-12T15:32:57.462Z,2.75
2022-08-12T15:35:27.470Z,2.97
2022-08-12T15:38:13.795Z,2.85
2022-08-12T15:40:53.688Z,2.63
2022-08-12T15:43:51.043Z,2.63
2022-08-12T15:46:14.834Z,3.03
2022-08-12T15:48:46.475Z,2.67
2022-08-12T15:51:58.630Z,2.58
2022-08-12T15:54:33.641Z,2.85
2022-08-12T15:57:07.691Z,2.65
2022-08-12T16:00:03.951Z,2.70
2022-08-12T16:02:23.008Z,2.58
2022-08-12T16:04:54.258Z,2.90
2022-08-12T16:07:25.903Z,2.83
2022-08-12T16:10:07.008Z,2.42
2022-08-12T16:12:54.403Z,2.60
2022-08-12T16:15:24.823Z,3.20
2022-08-12T16:18:18.333Z,2.33
2022-08-12T16:20:46.740Z,2.55
2022-08-12T16:23:35.975Z,2.45
2022-08-12T16:26:06.047Z,2.63
2022-08-12T16:28:42.554Z,2.90
2022-08-12T16:31:14.388Z,2.55
2022-08-12T16:33:59.285Z,3.17
2022-08-12T16:36:28.632Z,2.97
2022-08-12T16:38:55.323Z,3.88
2022-08-12T16:41:22.900Z,3.70
2022-08-12T16:43:50.548Z,3.70
2022-08-12T16:46:31.911Z,3.88
2022-08-12T16:49:09.111Z,3.60
2022-08-12T16:51:45.653Z,3.83
2022-08-12T16:54:16.519Z,3.25
2022-08-12T16:56:54.961Z,3.63
2022-08-12T16:59:24.058Z,3.50
2022-08-12T17:01:51.629Z,4.07
2022-08-12T17:04:18.976Z,4.03
2022-08-12T17:06:48.009Z,3.90
2022-08-12T17:09:17.603Z,4.10
2022-08-12T17:11:49.245Z,3.45
2022-08-12T17:16:45.657Z,3.70
2022-08-12T17:19:14.461Z,4.07
2022-08-12T17:22:01.481Z,3.95
2022-08-12T17:24:32.568Z,3.92
2022-08-12T17:27:16.003Z,3.20
2022-08-12T17:30:02.650Z,3.80
2022-08-12T17:32:33.750Z,3.50
2022-08-12T17:35:19.722Z,3.53
2022-08-12T17:37:48.723Z,3.10
2022-08-12T17:40:34.307Z,3.85
2022-08-12T17:43:54.631Z,3.10
2022-08-12T17:45:56.212Z,3.78
2022-08-12T17:48:34.914Z,3.60
2022-08-12T17:51:15.983Z,3.78
2022-08-12T17:54:05.942Z,4.15
2022-08-12T17:56:32.209Z,4.05
2022-08-12T17:59:00.822Z,4.38
2022-08-12T18:01:29.361Z,4.13
2022-08-12T18:04:21.726Z,4.50
2022-08-12T18:06:51.243Z,4.07
2022-08-12T18:09:20.441Z,4.00
2022-08-12T18:12:24.865Z,4.22
2022-08-12T18:15:00.999Z,4.72
2022-08-12T18:17:34.717Z,4.47
2022-08-12T18:20:08.209Z,4.00
2022-08-12T18:22:42.848Z,4.00
2022-08-12T18:26:14.057Z,4.25
2022-08-12T18:28:28.171Z,3.92
2022-08-12T18:31:03.150Z,4.05
2022-08-12T18:33:44.040Z,4.28
2022-08-12T18:36:14.702Z,3.65
2022-08-12T18:38:53.151Z,4.32
2022-08-12T18:41:34.562Z,3.70
2022-08-12T18:44:09.624Z,4.45
2022-08-12T18:46:54.406Z,4.15
2022-08-12T18:49:39.251Z,4.82
2022-08-12T18:52:08.056Z,4.78
2022-08-12T18:54:41.546Z,5.00
2022-08-12T18:57:19.799Z,5.03
2022-08-12T19:00:07.744Z,5.63
2022-08-12T19:02:40.127Z,4.60
2022-08-12T19:05:11.567Z,4.20
2022-08-12T19:08:00.635Z,3.80
2022-08-12T19:10:30.731Z,3.72
2022-08-12T19:13:23.359Z,3.95
2022-08-12T19:15:58.045Z,4.32
2022-08-12T19:18:30.104Z,4.47
2022-08-12T19:21:06.116Z,4.30
2022-08-12T19:23:35.492Z,4.40
2022-08-12T19:26:03.649Z,3.80
2022-08-12T19:28:36.438Z,3.95
2022-08-12T19:31:45.201Z,4.53
2022-08-12T19:37:38.535Z,4.38
2022-08-12T19:40:31.879Z,4.55
2022-08-12T19:43:17.294Z,3.35
2022-08-12T19:45:53.569Z,3.97
2022-08-12T19:48:23.045Z,4.25
2022-08-12T19:50:53.546Z,3.60
2022-08-12T19:53:24.444Z,3.63
2022-08-12T19:55:54.841Z,3.75
2022-08-12T19:58:23.326Z,4.43
2022-08-12T20:00:54.324Z,4.45
2022-08-12T20:03:38.326Z,4.47
2022-08-12T20:06:13.727Z,5.07
2022-08-12T20:08:48.694Z,4.72
2022-08-12T20:12:11.891Z,4.20
2022-08-12T20:14:05.103Z,3.83
2022-08-12T20:16:57.625Z,3.90
2022-08-12T20:19:52.678Z,4.00
2022-08-12T20:22:24.955Z,4.55
2022-08-12T20:25:09.126Z,4.55
2022-08-12T20:28:05.315Z,3.38
2022-08-12T20:30:52.667Z,4.43
2022-08-12T20:33:18.380Z,4.18
2022-08-12T20:36:06.628Z,3.80
2022-08-12T20:38:39.798Z,3.30
2022-08-12T20:41:16.273Z,3.55
2022-08-12T20:43:45.090Z,3.58
2022-08-12T20:46:13.469Z,3.53
2022-08-12T20:48:43.431Z,3.60
2022-08-12T20:51:15.897Z,3.63
2022-08-12T20:53:58.596Z,3.67
2022-08-12T20:56:35.456Z,4.05
2022-08-12T20:59:06.617Z,3.92
2022-08-12T21:01:46.125Z,3.70
2022-08-12T21:04:33.804Z,3.75
2022-08-12T21:07:09.551Z,2.97
2022-08-12T21:09:47.618Z,3.92
2022-08-12T21:12:28.221Z,3.28
2022-08-12T21:15:23.919Z,3.75
2022-08-12T21:18:09.167Z,3.45
2022-08-12T21:20:44.512Z,3.70
2022-08-12T21:23:11.282Z,3.92
2022-08-12T21:25:45.203Z,4.05
2022-08-12T21:28:14.336Z,3.80
2022-08-12T21:31:11.527Z,3.67
2022-08-12T21:33:45.569Z,3.42
2022-08-12T21:36:22.774Z,3.80
2022-08-12T21:39:20.365Z,3.50
2022-08-12T21:41:53.191Z,3.50
2022-08-12T21:47:19.782Z,3.20
2022-08-12T21:49:55.657Z,2.78
2022-08-12T21:55:18.912Z,3.97
2022-08-12T21:57:53.149Z,3.42
2022-08-12T22:00:31.547Z,3.28
2022-08-12T22:03:17.666Z,3.28
2022-08-12T22:06:20.392Z,3.17
2022-08-12T22:09:01.948Z,2.63
2022-08-12T22:11:42.368Z,3.35
2022-08-12T22:14:21.726Z,2.75
2022-08-12T22:16:52.413Z,3.42
2022-08-12T22:19:19.734Z,3.33
2022-08-12T22:21:53.516Z,3.65
2022-08-12T22:24:26.997Z,3.25
2022-08-12T22:27:28.194Z,3.47
2022-08-12T22:30:16.481Z,3.20
2022-08-12T22:32:54.781Z,3.72
2022-08-12T22:35:29.767Z,3.30
2022-08-12T22:38:19.799Z,3.50
2022-08-12T22:40:51.906Z,4.90
2022-08-12T22:44:01.128Z,3.75
2022-08-12T22:46:26.704Z,4.75
2022-08-12T22:48:57.512Z,4.10
2022-08-12T22:51:24.493Z,3.88
2022-08-12T22:53:54.307Z,3.22
2022-08-12T22:56:30.853Z,3.50
2022-08-12T22:59:02.863Z,3.60
2022-08-12T23:02:01.088Z,4.60
2022-08-12T23:04:27.827Z,3.70
2022-08-12T23:06:56.871Z,3.45
2022-08-12T23:09:34.633Z,4.20
2022-08-12T23:12:34.510Z,5.70
2022-08-12T23:15:05.627Z,7.22
2022-08-12T23:17:40.234Z,7.43
2022-08-12T23:20:10.927Z,7.50
2022-08-12T23:22:38.330Z,7.05
2022-08-12T23:25:05.388Z,6.80
2022-08-12T23:27:56.212Z,7.03
2022-08-12T23:30:32.157Z,6.03
2022-08-12T23:33:20.080Z,5.72
2022-08-12T23:35:58.858Z,5.80
2022-08-12T23:38:32.222Z,5.55
2022-08-12T23:41:01.483Z,5.10
2022-08-12T23:43:38.463Z,5.90
2022-08-12T23:46:08.661Z,5.30
2022-08-12T23:48:35.800Z,4.80
2022-08-12T23:51:23.276Z,5.20
2022-08-12T23:53:56.465Z,5.05
2022-08-12T23:56:29.204Z,5.45
2022-08-12T23:58:58.613Z,5.47
